sensor_id;sensor_type;location;lat;lon;timestamp;P1;durP1;ratioP1;P2;durP2;ratioP2
6566;SDS011;3317;43.994;22.878;2023-02-15T00:01:28;35.20;;;17.63;;
6566;SDS011;3317;43.994;22.878;2023-02-15T00:03:57;33.20;;;17.20;;
6566;SDS011;3317;43.994;22.878;2023-02-15T00:06:24;29.13;;;15.73;;
6566;SDS011;3317;43.994;22.878;2023-02-15T00:08:51;23.30;;;14.37;;
6566;SDS011;3317;43.994;22.878;2023-02-15T00:11:18;25.00;;;13.70;;
6566;SDS011;3317;43.994;22.878;2023-02-15T00:14:05;25.50;;;14.03;;
6566;SDS011;3317;43.994;22.878;2023-02-15T00:16:33;26.63;;;14.60;;
6566;SDS011;3317;43.994;22.878;2023-02-15T00:19:01;25.70;;;15.27;;
6566;SDS011;3317;43.994;22.878;2023-02-15T00:21:29;21.17;;;13.43;;
6566;SDS011;3317;43.994;22.878;2023-02-15T00:23:57;23.47;;;13.43;;
6566;SDS011;3317;43.994;22.878;2023-02-15T00:26:25;23.57;;;13.60;;
6566;SDS011;3317;43.994;22.878;2023-02-15T00:28:53;21.10;;;12.57;;
6566;SDS011;3317;43.994;22.878;2023-02-15T00:31:20;22.23;;;13.30;;
6566;SDS011;3317;43.994;22.878;2023-02-15T00:33:47;26.93;;;13.83;;
6566;SDS011;3317;43.994;22.878;2023-02-15T00:36:16;25.27;;;13.33;;
6566;SDS011;3317;43.994;22.878;2023-02-15T00:38:43;24.00;;;15.03;;
6566;SDS011;3317;43.994;22.878;2023-02-15T00:41:09;25.60;;;14.37;;
6566;SDS011;3317;43.994;22.878;2023-02-15T00:43:36;26.50;;;14.50;;
6566;SDS011;3317;43.994;22.878;2023-02-15T00:46:04;23.63;;;14.47;;
6566;SDS011;3317;43.994;22.878;2023-02-15T00:48:31;22.60;;;14.10;;
6566;SDS011;3317;43.994;22.878;2023-02-15T00:50:58;23.37;;;13.20;;
6566;SDS011;3317;43.994;22.878;2023-02-15T00:53:28;22.23;;;14.27;;
6566;SDS011;3317;43.994;22.878;2023-02-15T00:55:56;25.07;;;14.20;;
6566;SDS011;3317;43.994;22.878;2023-02-15T00:58:23;29.93;;;15.13;;
6566;SDS011;3317;43.994;22.878;2023-02-15T01:00:50;24.57;;;15.33;;
6566;SDS011;3317;43.994;22.878;2023-02-15T01:03:18;25.00;;;14.90;;
6566;SDS011;3317;43.994;22.878;2023-02-15T01:05:47;23.97;;;14.73;;
6566;SDS011;3317;43.994;22.878;2023-02-15T01:08:15;23.70;;;14.17;;
6566;SDS011;3317;43.994;22.878;2023-02-15T01:10:43;23.90;;;13.67;;
6566;SDS011;3317;43.994;22.878;2023-02-15T01:13:12;24.30;;;14.80;;
6566;SDS011;3317;43.994;22.878;2023-02-15T01:15:40;23.30;;;14.03;;
6566;SDS011;3317;43.994;22.878;2023-02-15T01:18:07;26.57;;;15.33;;
6566;SDS011;3317;43.994;22.878;2023-02-15T01:20:35;26.33;;;14.40;;
6566;SDS011;3317;43.994;22.878;2023-02-15T01:23:04;23.47;;;15.07;;
6566;SDS011;3317;43.994;22.878;2023-02-15T01:25:32;27.87;;;15.20;;
6566;SDS011;3317;43.994;22.878;2023-02-15T01:28:01;25.90;;;15.53;;
6566;SDS011;3317;43.994;22.878;2023-02-15T01:30:28;29.70;;;16.77;;
6566;SDS011;3317;43.994;22.878;2023-02-15T01:32:55;29.70;;;16.53;;
6566;SDS011;3317;43.994;22.878;2023-02-15T01:35:22;28.57;;;16.03;;
6566;SDS011;3317;43.994;22.878;2023-02-15T01:37:49;26.23;;;15.10;;
6566;SDS011;3317;43.994;22.878;2023-02-15T01:40:17;29.63;;;17.43;;
6566;SDS011;3317;43.994;22.878;2023-02-15T01:42:45;27.87;;;16.63;;
6566;SDS011;3317;43.994;22.878;2023-02-15T01:45:18;29.60;;;18.20;;
6566;SDS011;3317;43.994;22.878;2023-02-15T01:47:48;39.20;;;21.40;;
6566;SDS011;3317;43.994;22.878;2023-02-15T01:50:18;30.73;;;17.90;;
6566;SDS011;3317;43.994;22.878;2023-02-15T01:52:50;32.03;;;17.83;;
6566;SDS011;3317;43.994;22.878;2023-02-15T01:55:21;36.77;;;19.03;;
6566;SDS011;3317;43.994;22.878;2023-02-15T01:57:51;29.43;;;17.50;;
6566;SDS011;3317;43.994;22.878;2023-02-15T02:00:19;27.17;;;17.03;;
6566;SDS011;3317;43.994;22.878;2023-02-15T02:02:47;37.13;;;24.07;;
6566;SDS011;3317;43.994;22.878;2023-02-15T02:05:19;44.53;;;27.07;;
6566;SDS011;3317;43.994;22.878;2023-02-15T02:07:46;47.47;;;26.27;;
6566;SDS011;3317;43.994;22.878;2023-02-15T02:10:17;27.27;;;17.90;;
6566;SDS011;3317;43.994;22.878;2023-02-15T02:12:45;21.87;;;13.97;;
6566;SDS011;3317;43.994;22.878;2023-02-15T02:15:15;25.73;;;14.37;;
6566;SDS011;3317;43.994;22.878;2023-02-15T02:17:47;21.40;;;14.00;;
6566;SDS011;3317;43.994;22.878;2023-02-15T02:20:32;22.03;;;13.90;;
6566;SDS011;3317;43.994;22.878;2023-02-15T02:23:35;25.33;;;14.53;;
6566;SDS011;3317;43.994;22.878;2023-02-15T02:29:22;22.57;;;13.60;;
6566;SDS011;3317;43.994;22.878;2023-02-15T02:35:05;23.77;;;15.73;;
6566;SDS011;3317;43.994;22.878;2023-02-15T02:37:46;24.97;;;15.90;;
6566;SDS011;3317;43.994;22.878;2023-02-15T02:40:24;23.47;;;15.20;;
6566;SDS011;3317;43.994;22.878;2023-02-15T02:42:59;22.20;;;14.47;;
6566;SDS011;3317;43.994;22.878;2023-02-15T02:45:30;23.23;;;15.07;;
6566;SDS011;3317;43.994;22.878;2023-02-15T02:48:04;21.53;;;13.37;;
6566;SDS011;3317;43.994;22.878;2023-02-15T02:50:38;22.60;;;13.53;;
6566;SDS011;3317;43.994;22.878;2023-02-15T02:53:06;21.10;;;12.20;;
6566;SDS011;3317;43.994;22.878;2023-02-15T02:55:34;22.60;;;14.57;;
6566;SDS011;3317;43.994;22.878;2023-02-15T02:58:05;22.87;;;13.33;;
6566;SDS011;3317;43.994;22.878;2023-02-15T03:00:36;22.93;;;14.07;;
6566;SDS011;3317;43.994;22.878;2023-02-15T03:03:08;25.63;;;14.03;;
6566;SDS011;3317;43.994;22.878;2023-02-15T03:05:42;21.90;;;14.10;;
6566;SDS011;3317;43.994;22.878;2023-02-15T03:08:13;23.27;;;14.47;;
6566;SDS011;3317;43.994;22.878;2023-02-15T03:10:46;22.20;;;13.73;;
6566;SDS011;3317;43.994;22.878;2023-02-15T03:13:14;24.70;;;15.27;;
6566;SDS011;3317;43.994;22.878;2023-02-15T03:15:42;24.70;;;14.70;;
6566;SDS011;3317;43.994;22.878;2023-02-15T03:18:30;23.90;;;14.77;;
6566;SDS011;3317;43.994;22.878;2023-02-15T03:21:03;21.57;;;13.73;;
6566;SDS011;3317;43.994;22.878;2023-02-15T03:23:33;23.00;;;14.50;;
6566;SDS011;3317;43.994;22.878;2023-02-15T03:26:04;25.17;;;14.63;;
6566;SDS011;3317;43.994;22.878;2023-02-15T03:28:36;22.60;;;15.27;;
6566;SDS011;3317;43.994;22.878;2023-02-15T03:31:07;24.50;;;14.50;;
6566;SDS011;3317;43.994;22.878;2023-02-15T03:33:37;24.23;;;13.53;;
6566;SDS011;3317;43.994;22.878;2023-02-15T03:36:14;23.23;;;14.73;;
6566;SDS011;3317;43.994;22.878;2023-02-15T03:38:49;21.50;;;13.63;;
6566;SDS011;3317;43.994;22.878;2023-02-15T03:41:24;24.20;;;13.77;;
6566;SDS011;3317;43.994;22.878;2023-02-15T03:43:54;22.20;;;14.27;;
6566;SDS011;3317;43.994;22.878;2023-02-15T03:46:28;26.83;;;17.13;;
6566;SDS011;3317;43.994;22.878;2023-02-15T03:49:00;26.57;;;15.00;;
6566;SDS011;3317;43.994;22.878;2023-02-15T03:51:33;21.80;;;14.60;;
6566;SDS011;3317;43.994;22.878;2023-02-15T03:54:04;23.27;;;14.87;;
6566;SDS011;3317;43.994;22.878;2023-02-15T03:56:34;25.07;;;14.53;;
6566;SDS011;3317;43.994;22.878;2023-02-15T03:59:03;23.10;;;14.97;;
6566;SDS011;3317;43.994;22.878;2023-02-15T04:01:51;21.70;;;13.50;;
6566;SDS011;3317;43.994;22.878;2023-02-15T04:04:35;25.23;;;15.17;;
6566;SDS011;3317;43.994;22.878;2023-02-15T04:07:06;21.97;;;14.20;;
6566;SDS011;3317;43.994;22.878;2023-02-15T04:09:34;22.87;;;14.63;;
6566;SDS011;3317;43.994;22.878;2023-02-15T04:12:19;25.33;;;15.87;;
6566;SDS011;3317;43.994;22.878;2023-02-15T04:14:46;25.07;;;16.03;;
6566;SDS011;3317;43.994;22.878;2023-02-15T04:17:27;29.50;;;16.13;;
6566;SDS011;3317;43.994;22.878;2023-02-15T04:19:54;26.77;;;16.97;;
6566;SDS011;3317;43.994;22.878;2023-02-15T04:22:40;26.30;;;15.37;;
6566;SDS011;3317;43.994;22.878;2023-02-15T04:25:24;28.37;;;16.87;;
6566;SDS011;3317;43.994;22.878;2023-02-15T04:27:52;28.30;;;16.67;;
6566;SDS011;3317;43.994;22.878;2023-02-15T04:30:20;30.90;;;18.20;;
6566;SDS011;3317;43.994;22.878;2023-02-15T04:32:48;27.13;;;17.57;;
6566;SDS011;3317;43.994;22.878;2023-02-15T04:35:16;30.50;;;18.40;;
6566;SDS011;3317;43.994;22.878;2023-02-15T04:37:45;26.67;;;17.40;;
6566;SDS011;3317;43.994;22.878;2023-02-15T04:40:12;30.90;;;18.70;;
6566;SDS011;3317;43.994;22.878;2023-02-15T04:42:40;33.93;;;19.70;;
6566;SDS011;3317;43.994;22.878;2023-02-15T04:45:07;30.97;;;18.20;;
6566;SDS011;3317;43.994;22.878;2023-02-15T04:47:35;33.87;;;19.63;;
6566;SDS011;3317;43.994;22.878;2023-02-15T04:50:03;36.63;;;21.60;;
6566;SDS011;3317;43.994;22.878;2023-02-15T04:52:31;43.97;;;24.97;;
6566;SDS011;3317;43.994;22.878;2023-02-15T04:54:59;45.57;;;27.13;;
6566;SDS011;3317;43.994;22.878;2023-02-15T04:57:26;51.43;;;28.60;;
6566;SDS011;3317;43.994;22.878;2023-02-15T04:59:53;53.37;;;31.83;;
6566;SDS011;3317;43.994;22.878;2023-02-15T05:02:20;44.10;;;27.30;;
6566;SDS011;3317;43.994;22.878;2023-02-15T05:04:47;42.73;;;27.20;;
6566;SDS011;3317;43.994;22.878;2023-02-15T05:07:14;50.97;;;30.97;;
6566;SDS011;3317;43.994;22.878;2023-02-15T05:09:41;78.97;;;47.73;;
6566;SDS011;3317;43.994;22.878;2023-02-15T05:12:09;54.70;;;33.80;;
6566;SDS011;3317;43.994;22.878;2023-02-15T05:14:36;44.07;;;29.10;;
6566;SDS011;3317;43.994;22.878;2023-02-15T05:17:03;64.77;;;37.10;;
6566;SDS011;3317;43.994;22.878;2023-02-15T05:19:30;61.97;;;36.47;;
6566;SDS011;3317;43.994;22.878;2023-02-15T05:21:57;49.20;;;30.83;;
6566;SDS011;3317;43.994;22.878;2023-02-15T05:24:24;33.47;;;20.63;;
6566;SDS011;3317;43.994;22.878;2023-02-15T05:27:11;28.33;;;18.20;;
6566;SDS011;3317;43.994;22.878;2023-02-15T05:29:55;31.40;;;18.00;;
6566;SDS011;3317;43.994;22.878;2023-02-15T05:32:22;29.13;;;18.27;;
6566;SDS011;3317;43.994;22.878;2023-02-15T05:34:49;31.63;;;19.50;;
6566;SDS011;3317;43.994;22.878;2023-02-15T05:37:16;35.07;;;20.03;;
6566;SDS011;3317;43.994;22.878;2023-02-15T05:39:43;32.20;;;18.30;;
6566;SDS011;3317;43.994;22.878;2023-02-15T05:42:11;31.80;;;18.13;;
6566;SDS011;3317;43.994;22.878;2023-02-15T05:44:38;28.60;;;16.43;;
6566;SDS011;3317;43.994;22.878;2023-02-15T05:47:05;28.97;;;17.27;;
6566;SDS011;3317;43.994;22.878;2023-02-15T05:49:33;29.80;;;17.67;;
6566;SDS011;3317;43.994;22.878;2023-02-15T05:52:00;31.90;;;18.80;;
6566;SDS011;3317;43.994;22.878;2023-02-15T05:54:27;27.97;;;18.23;;
6566;SDS011;3317;43.994;22.878;2023-02-15T05:56:54;32.53;;;19.43;;
6566;SDS011;3317;43.994;22.878;2023-02-15T05:59:25;37.90;;;21.20;;
6566;SDS011;3317;43.994;22.878;2023-02-15T06:01:52;31.80;;;17.83;;
6566;SDS011;3317;43.994;22.878;2023-02-15T06:04:18;31.13;;;20.10;;
6566;SDS011;3317;43.994;22.878;2023-02-15T06:06:45;31.03;;;20.40;;
6566;SDS011;3317;43.994;22.878;2023-02-15T06:09:13;32.97;;;19.10;;
6566;SDS011;3317;43.994;22.878;2023-02-15T06:11:40;35.30;;;20.17;;
6566;SDS011;3317;43.994;22.878;2023-02-15T06:14:07;33.07;;;19.70;;
6566;SDS011;3317;43.994;22.878;2023-02-15T06:16:35;31.70;;;19.50;;
6566;SDS011;3317;43.994;22.878;2023-02-15T06:19:02;33.23;;;20.10;;
6566;SDS011;3317;43.994;22.878;2023-02-15T06:21:29;38.07;;;22.30;;
6566;SDS011;3317;43.994;22.878;2023-02-15T06:23:56;53.33;;;29.63;;
6566;SDS011;3317;43.994;22.878;2023-02-15T06:26:23;39.70;;;24.70;;
6566;SDS011;3317;43.994;22.878;2023-02-15T06:28:50;43.13;;;25.73;;
6566;SDS011;3317;43.994;22.878;2023-02-15T06:31:17;54.50;;;30.30;;
6566;SDS011;3317;43.994;22.878;2023-02-15T06:33:46;49.10;;;30.50;;
6566;SDS011;3317;43.994;22.878;2023-02-15T06:36:13;44.50;;;26.27;;
6566;SDS011;3317;43.994;22.878;2023-02-15T06:38:40;43.23;;;25.20;;
6566;SDS011;3317;43.994;22.878;2023-02-15T06:41:07;47.00;;;25.73;;
6566;SDS011;3317;43.994;22.878;2023-02-15T06:43:34;52.73;;;27.80;;
6566;SDS011;3317;43.994;22.878;2023-02-15T06:46:01;43.80;;;24.10;;
6566;SDS011;3317;43.994;22.878;2023-02-15T06:48:28;40.53;;;23.57;;
6566;SDS011;3317;43.994;22.878;2023-02-15T06:50:56;43.40;;;24.20;;
6566;SDS011;3317;43.994;22.878;2023-02-15T06:53:23;42.17;;;23.70;;
6566;SDS011;3317;43.994;22.878;2023-02-15T06:55:50;42.23;;;23.37;;
6566;SDS011;3317;43.994;22.878;2023-02-15T06:58:17;38.20;;;22.60;;
6566;SDS011;3317;43.994;22.878;2023-02-15T07:00:44;34.90;;;20.80;;
6566;SDS011;3317;43.994;22.878;2023-02-15T07:03:12;35.80;;;22.00;;
6566;SDS011;3317;43.994;22.878;2023-02-15T07:05:40;36.90;;;21.43;;
6566;SDS011;3317;43.994;22.878;2023-02-15T07:08:08;31.23;;;19.97;;
6566;SDS011;3317;43.994;22.878;2023-02-15T07:10:35;36.63;;;20.10;;
6566;SDS011;3317;43.994;22.878;2023-02-15T07:13:02;38.17;;;21.53;;
6566;SDS011;3317;43.994;22.878;2023-02-15T07:15:28;34.67;;;22.10;;
6566;SDS011;3317;43.994;22.878;2023-02-15T07:17:55;37.10;;;21.50;;
6566;SDS011;3317;43.994;22.878;2023-02-15T07:20:23;39.43;;;21.20;;
6566;SDS011;3317;43.994;22.878;2023-02-15T07:22:50;42.50;;;23.20;;
6566;SDS011;3317;43.994;22.878;2023-02-15T07:25:19;37.60;;;22.30;;
6566;SDS011;3317;43.994;22.878;2023-02-15T07:27:46;37.53;;;21.33;;
6566;SDS011;3317;43.994;22.878;2023-02-15T07:30:14;36.63;;;21.77;;
6566;SDS011;3317;43.994;22.878;2023-02-15T07:32:43;42.53;;;21.87;;
6566;SDS011;3317;43.994;22.878;2023-02-15T07:35:27;32.40;;;19.50;;
6566;SDS011;3317;43.994;22.878;2023-02-15T07:37:54;35.87;;;20.50;;
6566;SDS011;3317;43.994;22.878;2023-02-15T07:40:22;33.40;;;20.00;;
6566;SDS011;3317;43.994;22.878;2023-02-15T07:42:49;32.37;;;19.93;;
6566;SDS011;3317;43.994;22.878;2023-02-15T07:45:19;30.87;;;18.57;;
6566;SDS011;3317;43.994;22.878;2023-02-15T07:47:46;37.23;;;19.83;;
6566;SDS011;3317;43.994;22.878;2023-02-15T07:50:13;29.90;;;18.00;;
6566;SDS011;3317;43.994;22.878;2023-02-15T07:52:41;34.67;;;18.57;;
6566;SDS011;3317;43.994;22.878;2023-02-15T07:55:07;46.13;;;20.40;;
6566;SDS011;3317;43.994;22.878;2023-02-15T07:57:39;31.17;;;19.30;;
6566;SDS011;3317;43.994;22.878;2023-02-15T08:00:09;35.03;;;18.83;;
6566;SDS011;3317;43.994;22.878;2023-02-15T08:02:37;28.20;;;17.60;;
6566;SDS011;3317;43.994;22.878;2023-02-15T08:05:04;27.87;;;17.97;;
6566;SDS011;3317;43.994;22.878;2023-02-15T08:07:31;30.80;;;17.83;;
6566;SDS011;3317;43.994;22.878;2023-02-15T08:09:58;30.83;;;18.37;;
6566;SDS011;3317;43.994;22.878;2023-02-15T08:12:25;32.57;;;18.50;;
6566;SDS011;3317;43.994;22.878;2023-02-15T08:14:53;37.50;;;19.80;;
6566;SDS011;3317;43.994;22.878;2023-02-15T08:17:21;35.50;;;18.87;;
6566;SDS011;3317;43.994;22.878;2023-02-15T08:19:48;31.30;;;18.07;;
6566;SDS011;3317;43.994;22.878;2023-02-15T08:22:15;29.30;;;17.17;;
6566;SDS011;3317;43.994;22.878;2023-02-15T08:24:42;30.00;;;17.87;;
6566;SDS011;3317;43.994;22.878;2023-02-15T08:27:09;25.07;;;15.90;;
6566;SDS011;3317;43.994;22.878;2023-02-15T08:29:37;26.80;;;16.60;;
6566;SDS011;3317;43.994;22.878;2023-02-15T08:32:08;24.30;;;15.07;;
6566;SDS011;3317;43.994;22.878;2023-02-15T08:34:38;27.73;;;16.10;;
6566;SDS011;3317;43.994;22.878;2023-02-15T08:37:06;30.47;;;15.07;;
6566;SDS011;3317;43.994;22.878;2023-02-15T08:39:33;28.77;;;16.87;;
6566;SDS011;3317;43.994;22.878;2023-02-15T08:42:00;27.63;;;15.87;;
6566;SDS011;3317;43.994;22.878;2023-02-15T08:44:27;28.00;;;17.20;;
6566;SDS011;3317;43.994;22.878;2023-02-15T08:46:54;30.03;;;17.47;;
6566;SDS011;3317;43.994;22.878;2023-02-15T08:49:25;25.20;;;14.97;;
6566;SDS011;3317;43.994;22.878;2023-02-15T08:51:51;23.63;;;15.47;;
6566;SDS011;3317;43.994;22.878;2023-02-15T08:54:19;25.97;;;14.97;;
6566;SDS011;3317;43.994;22.878;2023-02-15T08:56:47;26.10;;;15.67;;
6566;SDS011;3317;43.994;22.878;2023-02-15T08:59:15;28.23;;;16.83;;
6566;SDS011;3317;43.994;22.878;2023-02-15T09:01:43;27.90;;;15.40;;
6566;SDS011;3317;43.994;22.878;2023-02-15T09:04:11;31.57;;;15.57;;
6566;SDS011;3317;43.994;22.878;2023-02-15T09:06:40;28.00;;;14.57;;
6566;SDS011;3317;43.994;22.878;2023-02-15T09:09:08;25.20;;;13.13;;
6566;SDS011;3317;43.994;22.878;2023-02-15T09:11:36;26.40;;;14.67;;
6566;SDS011;3317;43.994;22.878;2023-02-15T09:14:05;26.07;;;16.37;;
6566;SDS011;3317;43.994;22.878;2023-02-15T09:16:35;27.27;;;15.63;;
6566;SDS011;3317;43.994;22.878;2023-02-15T09:19:03;25.80;;;14.60;;
6566;SDS011;3317;43.994;22.878;2023-02-15T09:21:31;27.50;;;15.10;;
6566;SDS011;3317;43.994;22.878;2023-02-15T09:24:01;28.70;;;15.37;;
6566;SDS011;3317;43.994;22.878;2023-02-15T09:26:30;26.30;;;14.27;;
6566;SDS011;3317;43.994;22.878;2023-02-15T09:29:00;25.33;;;14.27;;
6566;SDS011;3317;43.994;22.878;2023-02-15T09:31:29;22.23;;;12.90;;
6566;SDS011;3317;43.994;22.878;2023-02-15T09:33:57;21.70;;;12.60;;
6566;SDS011;3317;43.994;22.878;2023-02-15T09:36:30;23.90;;;12.63;;
6566;SDS011;3317;43.994;22.878;2023-02-15T09:38:58;25.73;;;13.30;;
6566;SDS011;3317;43.994;22.878;2023-02-15T09:41:35;22.90;;;13.70;;
6566;SDS011;3317;43.994;22.878;2023-02-15T09:44:23;24.07;;;12.70;;
6566;SDS011;3317;43.994;22.878;2023-02-15T09:47:08;20.40;;;13.17;;
6566;SDS011;3317;43.994;22.878;2023-02-15T09:49:49;23.70;;;13.07;;
6566;SDS011;3317;43.994;22.878;2023-02-15T09:52:26;21.80;;;12.43;;
6566;SDS011;3317;43.994;22.878;2023-02-15T09:55:11;26.13;;;12.90;;
6566;SDS011;3317;43.994;22.878;2023-02-15T09:57:52;21.93;;;13.00;;
6566;SDS011;3317;43.994;22.878;2023-02-15T10:00:29;20.80;;;12.77;;
6566;SDS011;3317;43.994;22.878;2023-02-15T10:03:15;33.27;;;14.30;;
6566;SDS011;3317;43.994;22.878;2023-02-15T10:05:56;19.57;;;12.47;;
6566;SDS011;3317;43.994;22.878;2023-02-15T10:08:47;22.50;;;13.70;;
6566;SDS011;3317;43.994;22.878;2023-02-15T10:11:24;21.10;;;12.60;;
6566;SDS011;3317;43.994;22.878;2023-02-15T10:14:12;22.70;;;11.70;;
6566;SDS011;3317;43.994;22.878;2023-02-15T10:17:04;20.13;;;11.23;;
6566;SDS011;3317;43.994;22.878;2023-02-15T10:19:44;21.33;;;12.60;;
6566;SDS011;3317;43.994;22.878;2023-02-15T10:22:25;18.90;;;11.90;;
6566;SDS011;3317;43.994;22.878;2023-02-15T10:25:08;19.30;;;12.27;;
6566;SDS011;3317;43.994;22.878;2023-02-15T10:27:56;23.17;;;12.60;;
6566;SDS011;3317;43.994;22.878;2023-02-15T10:30:32;19.97;;;12.50;;
6566;SDS011;3317;43.994;22.878;2023-02-15T10:33:09;19.77;;;12.73;;
6566;SDS011;3317;43.994;22.878;2023-02-15T10:35:44;23.50;;;13.03;;
6566;SDS011;3317;43.994;22.878;2023-02-15T10:38:20;19.80;;;12.03;;
6566;SDS011;3317;43.994;22.878;2023-02-15T10:41:02;20.57;;;11.73;;
6566;SDS011;3317;43.994;22.878;2023-02-15T10:43:45;17.60;;;11.40;;
6566;SDS011;3317;43.994;22.878;2023-02-15T10:46:27;18.67;;;11.17;;
6566;SDS011;3317;43.994;22.878;2023-02-15T10:49:12;24.37;;;12.00;;
6566;SDS011;3317;43.994;22.878;2023-02-15T10:51:52;26.03;;;13.07;;
6566;SDS011;3317;43.994;22.878;2023-02-15T10:54:31;18.23;;;11.50;;
6566;SDS011;3317;43.994;22.878;2023-02-15T10:57:03;18.73;;;11.90;;
6566;SDS011;3317;43.994;22.878;2023-02-15T10:59:44;20.70;;;12.00;;
6566;SDS011;3317;43.994;22.878;2023-02-15T11:02:26;20.53;;;12.50;;
6566;SDS011;3317;43.994;22.878;2023-02-15T11:05:08;19.13;;;11.73;;
6566;SDS011;3317;43.994;22.878;2023-02-15T11:07:51;17.23;;;10.60;;
6566;SDS011;3317;43.994;22.878;2023-02-15T11:10:24;23.47;;;13.57;;
6566;SDS011;3317;43.994;22.878;2023-02-15T11:12:56;21.00;;;11.27;;
6566;SDS011;3317;43.994;22.878;2023-02-15T11:15:30;13.20;;;9.67;;
6566;SDS011;3317;43.994;22.878;2023-02-15T11:18:02;22.73;;;12.27;;
6566;SDS011;3317;43.994;22.878;2023-02-15T11:20:37;17.83;;;11.70;;
6566;SDS011;3317;43.994;22.878;2023-02-15T11:23:09;23.53;;;11.57;;
6566;SDS011;3317;43.994;22.878;2023-02-15T11:25:42;17.17;;;10.87;;
6566;SDS011;3317;43.994;22.878;2023-02-15T11:28:12;14.70;;;10.17;;
6566;SDS011;3317;43.994;22.878;2023-02-15T11:30:49;18.60;;;11.40;;
6566;SDS011;3317;43.994;22.878;2023-02-15T11:33:20;18.73;;;12.13;;
6566;SDS011;3317;43.994;22.878;2023-02-15T11:35:52;18.00;;;11.50;;
6566;SDS011;3317;43.994;22.878;2023-02-15T11:38:26;17.53;;;11.60;;
6566;SDS011;3317;43.994;22.878;2023-02-15T11:40:59;16.03;;;11.20;;
6566;SDS011;3317;43.994;22.878;2023-02-15T11:43:31;19.10;;;11.87;;
6566;SDS011;3317;43.994;22.878;2023-02-15T11:46:03;18.77;;;11.53;;
6566;SDS011;3317;43.994;22.878;2023-02-15T11:48:31;21.57;;;12.40;;
6566;SDS011;3317;43.994;22.878;2023-02-15T11:50:59;21.93;;;12.53;;
6566;SDS011;3317;43.994;22.878;2023-02-15T11:53:28;18.80;;;12.57;;
6566;SDS011;3317;43.994;22.878;2023-02-15T11:55:59;17.47;;;10.83;;
6566;SDS011;3317;43.994;22.878;2023-02-15T11:58:30;19.80;;;12.50;;
6566;SDS011;3317;43.994;22.878;2023-02-15T12:01:07;17.67;;;11.33;;
6566;SDS011;3317;43.994;22.878;2023-02-15T12:03:43;21.23;;;13.03;;
6566;SDS011;3317;43.994;22.878;2023-02-15T12:06:21;18.07;;;11.40;;
6566;SDS011;3317;43.994;22.878;2023-02-15T12:08:55;21.63;;;11.20;;
6566;SDS011;3317;43.994;22.878;2023-02-15T12:11:29;22.60;;;12.70;;
6566;SDS011;3317;43.994;22.878;2023-02-15T12:14:03;16.50;;;10.70;;
6566;SDS011;3317;43.994;22.878;2023-02-15T12:16:33;23.93;;;12.90;;
6566;SDS011;3317;43.994;22.878;2023-02-15T12:19:12;19.50;;;12.03;;
6566;SDS011;3317;43.994;22.878;2023-02-15T12:21:49;20.27;;;12.43;;
6566;SDS011;3317;43.994;22.878;2023-02-15T12:24:18;23.03;;;13.20;;
6566;SDS011;3317;43.994;22.878;2023-02-15T12:26:55;17.33;;;10.40;;
6566;SDS011;3317;43.994;22.878;2023-02-15T12:29:25;15.10;;;9.30;;
6566;SDS011;3317;43.994;22.878;2023-02-15T12:31:57;15.83;;;10.07;;
6566;SDS011;3317;43.994;22.878;2023-02-15T12:34:26;14.90;;;9.93;;
6566;SDS011;3317;43.994;22.878;2023-02-15T12:36:56;21.27;;;13.83;;
6566;SDS011;3317;43.994;22.878;2023-02-15T12:39:28;15.90;;;11.40;;
6566;SDS011;3317;43.994;22.878;2023-02-15T12:42:01;22.37;;;13.00;;
6566;SDS011;3317;43.994;22.878;2023-02-15T12:44:32;19.40;;;11.47;;
6566;SDS011;3317;43.994;22.878;2023-02-15T12:47:02;20.93;;;14.07;;
6566;SDS011;3317;43.994;22.878;2023-02-15T12:49:31;19.93;;;12.13;;
6566;SDS011;3317;43.994;22.878;2023-02-15T12:51:59;19.33;;;12.10;;
6566;SDS011;3317;43.994;22.878;2023-02-15T12:54:34;23.70;;;14.07;;
6566;SDS011;3317;43.994;22.878;2023-02-15T12:59:51;17.13;;;10.67;;
6566;SDS011;3317;43.994;22.878;2023-02-15T13:02:25;16.37;;;11.40;;
6566;SDS011;3317;43.994;22.878;2023-02-15T13:04:55;21.13;;;13.20;;
6566;SDS011;3317;43.994;22.878;2023-02-15T13:07:24;20.00;;;12.50;;
6566;SDS011;3317;43.994;22.878;2023-02-15T13:09:57;17.20;;;11.37;;
6566;SDS011;3317;43.994;22.878;2023-02-15T13:12:25;17.50;;;10.40;;
6566;SDS011;3317;43.994;22.878;2023-02-15T13:14:55;22.80;;;10.60;;
6566;SDS011;3317;43.994;22.878;2023-02-15T13:17:26;20.73;;;12.47;;
6566;SDS011;3317;43.994;22.878;2023-02-15T13:19:57;25.23;;;15.17;;
6566;SDS011;3317;43.994;22.878;2023-02-15T13:22:30;18.67;;;11.90;;
6566;SDS011;3317;43.994;22.878;2023-02-15T13:25:03;17.70;;;11.70;;
6566;SDS011;3317;43.994;22.878;2023-02-15T13:27:37;22.13;;;12.50;;
6566;SDS011;3317;43.994;22.878;2023-02-15T13:30:10;14.77;;;9.30;;
6566;SDS011;3317;43.994;22.878;2023-02-15T13:32:46;31.33;;;14.57;;
6566;SDS011;3317;43.994;22.878;2023-02-15T13:35:16;20.03;;;13.70;;
6566;SDS011;3317;43.994;22.878;2023-02-15T13:37:50;27.03;;;14.93;;
6566;SDS011;3317;43.994;22.878;2023-02-15T13:40:40;20.63;;;12.93;;
6566;SDS011;3317;43.994;22.878;2023-02-15T13:43:20;18.63;;;11.90;;
6566;SDS011;3317;43.994;22.878;2023-02-15T13:46:02;24.23;;;12.27;;
6566;SDS011;3317;43.994;22.878;2023-02-15T13:48:44;25.00;;;14.50;;
6566;SDS011;3317;43.994;22.878;2023-02-15T13:51:20;21.83;;;14.10;;
6566;SDS011;3317;43.994;22.878;2023-02-15T13:53:57;22.40;;;13.00;;
6566;SDS011;3317;43.994;22.878;2023-02-15T13:56:42;26.00;;;14.40;;
6566;SDS011;3317;43.994;22.878;2023-02-15T14:08:03;24.53;;;15.50;;
6566;SDS011;3317;43.994;22.878;2023-02-15T14:10:39;21.17;;;12.87;;
6566;SDS011;3317;43.994;22.878;2023-02-15T14:13:27;27.07;;;15.77;;
6566;SDS011;3317;43.994;22.878;2023-02-15T14:16:21;27.57;;;14.30;;
6566;SDS011;3317;43.994;22.878;2023-02-15T14:18:59;20.20;;;13.40;;
6566;SDS011;3317;43.994;22.878;2023-02-15T14:21:39;17.53;;;11.33;;
6566;SDS011;3317;43.994;22.878;2023-02-15T14:24:16;17.40;;;11.43;;
6566;SDS011;3317;43.994;22.878;2023-02-15T14:26:52;17.07;;;11.60;;
6566;SDS011;3317;43.994;22.878;2023-02-15T14:29:28;22.93;;;14.07;;
6566;SDS011;3317;43.994;22.878;2023-02-15T14:32:08;19.07;;;12.27;;
6566;SDS011;3317;43.994;22.878;2023-02-15T14:34:42;19.53;;;12.27;;
6566;SDS011;3317;43.994;22.878;2023-02-15T14:37:16;18.87;;;12.20;;
6566;SDS011;3317;43.994;22.878;2023-02-15T14:39:50;19.43;;;12.63;;
6566;SDS011;3317;43.994;22.878;2023-02-15T14:42:40;20.50;;;13.40;;
6566;SDS011;3317;43.994;22.878;2023-02-15T14:45:17;19.10;;;12.67;;
6566;SDS011;3317;43.994;22.878;2023-02-15T14:47:51;22.83;;;13.90;;
6566;SDS011;3317;43.994;22.878;2023-02-15T14:50:37;20.30;;;14.00;;
6566;SDS011;3317;43.994;22.878;2023-02-15T14:56:22;18.40;;;13.23;;
6566;SDS011;3317;43.994;22.878;2023-02-15T14:58:55;21.67;;;13.63;;
6566;SDS011;3317;43.994;22.878;2023-02-15T15:01:25;22.63;;;14.00;;
6566;SDS011;3317;43.994;22.878;2023-02-15T15:03:54;22.30;;;14.30;;
6566;SDS011;3317;43.994;22.878;2023-02-15T15:06:25;21.97;;;14.10;;
6566;SDS011;3317;43.994;22.878;2023-02-15T15:08:58;21.93;;;14.33;;
6566;SDS011;3317;43.994;22.878;2023-02-15T15:11:38;20.30;;;14.30;;
6566;SDS011;3317;43.994;22.878;2023-02-15T15:17:04;25.30;;;14.77;;
6566;SDS011;3317;43.994;22.878;2023-02-15T15:22:38;20.53;;;13.97;;
6566;SDS011;3317;43.994;22.878;2023-02-15T15:25:12;23.40;;;15.67;;
6566;SDS011;3317;43.994;22.878;2023-02-15T15:28:10;27.30;;;16.20;;
6566;SDS011;3317;43.994;22.878;2023-02-15T15:31:15;31.47;;;19.10;;